Time;durP1;ratioP1;P1;durP2;ratioP2;P2;SDS_P1;SDS_P2;PMS_P1;PMS_P2;Temp;Humidity;BMP_temperature;BMP_pressure;BME280_temperature;BME280_humidity;BME280_pressure;Samples;Min_cycle;Max_cycle;Signal;HPM_P1;HPM_P2
2022/08/21 00:00:17;;;;;;;;;;;;;;;;;;1022072;28;1786;-50
2022/08/21 00:01:10;;;;;;;;;;;;;;;;;;1020423;28;4019;-53
2022/08/21 00:01:41;;;;;;;;;;;;;;;;;;1021824;28;4062;-54
2022/08/21 00:02:33;;;;;;;;;;;;;;;;;;1022234;28;1802;-53
2022/08/21 00:03:11;;;;;;;;;;;;;;;;;;1019903;28;4102;-51
2022/08/21 00:03:41;;;;;;;;;;;;;;;;;;1021342;28;4098;-54
2022/08/21 00:04:12;;;;;;;;;;;;;;;;;;1021306;28;1938;-53
2022/08/21 00:04:43;;;;;;;;;;;;;;;;;;1021717;28;4022;-54
2022/08/21 00:05:13;;;;;;;;;;;;;;;;;;1024758;28;1729;-53
2022/08/21 00:05:45;;;;;;;;;;;;;;;;;;1020947;29;3947;-48
2022/08/21 00:06:16;;;;;;;;;;;;;;;;;;1019427;29;1979;-51
2022/08/21 00:06:46;;;;;;;;;;;;;;;;;;1019248;28;4030;-53
2022/08/21 00:07:18;;;;;;;;;;;;;;;;;;1021748;28;3367;-50
2022/08/21 00:07:55;;;;;;;;;;;;;;;;;;1020594;28;4092;-54
2022/08/21 00:08:25;;;;;;;;;;;;;;;;;;1021102;28;3974;-53
2022/08/21 00:08:56;;;;;;;;;;;;;;;;;;1022026;28;1260;-48
2022/08/21 00:09:26;;;;;;;;;;;;;;;;;;1021105;28;3970;-49
2022/08/21 00:09:56;;;;;;;;;;;;;;;;;;1021469;28;1732;-53
2022/08/21 00:10:27;;;;;;;;;;;;;;;;;;1021109;28;4092;-50
2022/08/21 00:10:57;;;;;;;;;;;;;;;;;;1021369;28;2388;-50
2022/08/21 00:11:27;;;;;;;;;;;;;;;;;;1019505;28;3926;-53
2022/08/21 00:11:57;;;;;;;;;;;;;;;;;;1022150;28;1018;-53
2022/08/21 00:12:28;;;;;;;;;;;;;;;;;;1020989;28;3921;-51
2022/08/21 00:13:05;;;;;;;;;;;;;;;;;;1021564;28;1349;-50
2022/08/21 00:13:36;;;;;;;;;;;;;;;;;;1021510;28;3902;-54
2022/08/21 00:14:08;;;;;;;;;;;;;;;;;;1021035;28;1893;-55
2022/08/21 00:14:38;;;;;;;;;;;;;;;;;;1020137;28;4232;-51
2022/08/21 00:15:09;;;;;;;;;;;;;;;;;;1022260;28;1388;-51
2022/08/21 00:15:41;;;;;;;;;;;;;;;;;;1021425;28;3884;-51
2022/08/21 00:16:11;;;;;;;;;;;;;;;;;;1022150;28;1370;-52
2022/08/21 00:16:41;;;;;;;;;;;;;;;;;;1020505;28;3874;-55
2022/08/21 00:17:24;;;;;;;;;;;;;;;;;;1020987;28;1544;-50
2022/08/21 00:18:02;;;;;;;;;;;;;;;;;;1020227;28;3619;-54
2022/08/21 00:18:33;;;;;;;;;;;;;;;;;;1018835;28;4051;-48
2022/08/21 00:19:03;;;;;;;;;;;;;;;;;;1021853;28;3056;-52
2022/08/21 00:19:33;;;;;;;;;;;;;;;;;;1020945;28;4116;-53
2022/08/21 00:20:05;;;;;;;;;;;;;;;;;;1020467;28;3299;-51
2022/08/21 00:20:37;;;;;;;;;;;;;;;;;;1019245;28;3823;-52
2022/08/21 00:21:07;;;;;;;;;;;;;;;;;;1021399;28;1639;-56
2022/08/21 00:21:37;;;;;;;;;;;;;;;;;;1020491;28;3958;-52
2022/08/21 00:22:07;;;;;;;;;;;;;;;;;;1020900;28;2878;-51
2022/08/21 00:22:38;;;;;;;;;;;;;;;;;;1021641;28;3816;-52
2022/08/21 00:23:08;;;;;;;;;;;;;;;;;;1020970;28;2235;-51
2022/08/21 00:23:39;;;;;;;;;;;;;;;;;;1021653;28;3917;-55
2022/08/21 00:24:09;;;;;;;;;;;;;;;;;;1021553;28;1858;-52
2022/08/21 00:24:39;;;;;;;;;;;;;;;;;;1021497;28;4109;-52
2022/08/21 00:25:10;;;;;;;;;;;;;;;;;;1021893;28;1865;-50
2022/08/21 00:25:41;;;;;;;;;;;;;;;;;;1021654;28;4422;-54
2022/08/21 00:26:11;;;;;;;;;;;;;;;;;;1021982;28;1982;-51
2022/08/21 00:26:42;;;;;;;;;;;;;;;;;;1019929;28;3889;-49
2022/08/21 00:27:13;;;;;;;;;;;;;;;;;;1021795;28;1883;-51
2022/08/21 00:27:43;;;;;;;;;;;;;;;;;;1020180;28;4224;-54
2022/08/21 00:28:14;;;;;;;;;;;;;;;;;;1022069;28;1624;-53
2022/08/21 00:28:45;;;;;;;;;;;;;;;;;;1021488;28;4039;-50
2022/08/21 00:29:16;;;;;;;;;;;;;;;;;;1021524;28;1649;-54
2022/08/21 00:29:46;;;;;;;;;;;;;;;;;;1021776;28;4021;-52
2022/08/21 00:30:17;;;;;;;;;;;;;;;;;;1021464;28;1730;-56
2022/08/21 00:30:47;;;;;;;;;;;;;;;;;;1021748;28;4003;-50
2022/08/21 00:31:17;;;;;;;;;;;;;;;;;;1020769;28;2605;-54
2022/08/21 00:31:48;;;;;;;;;;;;;;;;;;1021502;28;3755;-53
2022/08/21 00:32:22;;;;;;;;;;;;;;;;;;1021510;28;1061;-54
2022/08/21 00:32:53;;;;;;;;;;;;;;;;;;1021414;28;3910;-52
2022/08/21 00:33:24;;;;;;;;;;;;;;;;;;1020405;28;4061;-50
2022/08/21 00:33:54;;;;;;;;;;;;;;;;;;1021475;28;2851;-49
2022/08/21 00:34:25;;;;;;;;;;;;;;;;;;1021077;28;4285;-49
2022/08/21 00:34:55;;;;;;;;;;;;;;;;;;1017558;29;1550;-52
2022/08/21 00:35:30;;;;;;;;;;;;;;;;;;1016692;29;3907;-51
2022/08/21 00:36:01;;;;;;;;;;;;;;;;;;1014851;29;1641;-52
2022/08/21 00:36:31;;;;;;;;;;;;;;;;;;1016956;28;4155;-54
2022/08/21 00:37:01;;;;;;;;;;;;;;;;;;1021558;28;3250;-50
2022/08/21 00:37:32;;;;;;;;;;;;;;;;;;1020303;28;3948;-52
2022/08/21 00:38:03;;;;;;;;;;;;;;;;;;1020526;28;2406;-53
2022/08/21 00:38:33;;;;;;;;;;;;;;;;;;1021363;28;3914;-54
2022/08/21 00:39:05;;;;;;;;;;;;;;;;;;1021608;28;2322;-52
2022/08/21 00:39:35;;;;;;;;;;;;;;;;;;1024798;28;4049;-50
2022/08/21 00:40:06;;;;;;;;;;;;;;;;;;1026003;28;1343;-50
2022/08/21 00:40:57;;;;;;;;;;;;;;;;;;1025301;28;4195;-48
2022/08/21 00:41:28;;;;;;;;;;;;;;;;;;1021618;28;3981;-54
2022/08/21 00:41:58;;;;;;;;;;;;;;;;;;1021537;28;1658;-52
2022/08/21 00:42:30;;;;;;;;;;;;;;;;;;1021490;28;4048;-55
2022/08/21 00:43:01;;;;;;;;;;;;;;;;;;1022117;28;1212;-53
2022/08/21 00:43:33;;;;;;;;;;;;;;;;;;1020457;28;3833;-53
2022/08/21 00:44:04;;;;;;;;;;;;;;;;;;1022374;28;1707;-50
2022/08/21 00:44:34;;;;;;;;;;;;;;;;;;1021520;28;3869;-48
2022/08/21 00:45:05;;;;;;;;;;;;;;;;;;1021600;28;1768;-52
2022/08/21 00:45:35;;;;;;;;;;;;;;;;;;1021318;28;3870;-53
2022/08/21 00:46:06;;;;;;;;;;;;;;;;;;1021378;28;1915;-50
2022/08/21 00:46:37;;;;;;;;;;;;;;;;;;1021678;28;3963;-49
2022/08/21 00:47:08;;;;;;;;;;;;;;;;;;1022072;28;1785;-49
2022/08/21 00:47:38;;;;;;;;;;;;;;;;;;1021843;28;4122;-54
2022/08/21 00:48:08;;;;;;;;;;;;;;;;;;1019597;28;2772;-54
2022/08/21 00:48:39;;;;;;;;;;;;;;;;;;1021198;28;4079;-49
2022/08/21 00:49:11;;;;;;;;;;;;;;;;;;1021778;28;1757;-49
2022/08/21 00:49:41;;;;;;;;;;;;;;;;;;1021177;28;4989;-50
2022/08/21 00:50:12;;;;;;;;;;;;;;;;;;1021890;28;1801;-52
2022/08/21 00:50:48;;;;;;;;;;;;;;;;;;1021821;28;4059;-48
2022/08/21 00:51:22;;;;;;;;;;;;;;;;;;1020997;28;2283;-52
2022/08/21 00:51:55;;;;;;;;;;;;;;;;;;1021400;28;3989;-53
2022/08/21 00:52:27;;;;;;;;;;;;;;;;;;1021513;28;4177;-52
2022/08/21 00:52:59;;;;;;;;;;;;;;;;;;1021559;28;1975;-56
2022/08/21 00:53:30;;;;;;;;;;;;;;;;;;1020646;28;3932;-51
2022/08/21 00:54:01;;;;;;;;;;;;;;;;;;1021051;28;1376;-52
2022/08/21 00:54:31;;;;;;;;;;;;;;;;;;1020055;28;4259;-50
2022/08/21 00:55:02;;;;;;;;;;;;;;;;;;1022198;28;2508;-54
2022/08/21 00:55:33;;;;;;;;;;;;;;;;;;1021313;28;4854;-49
2022/08/21 00:56:05;;;;;;;;;;;;;;;;;;1022079;28;1647;-49
2022/08/21 00:56:36;;;;;;;;;;;;;;;;;;1020679;28;4022;-53
2022/08/21 00:57:12;;;;;;;;;;;;;;;;;;1021752;28;1496;-50
2022/08/21 00:57:51;;;;;;;;;;;;;;;;;;1020432;28;4196;-54
2022/08/21 00:58:22;;;;;;;;;;;;;;;;;;1020789;28;3976;-52
2022/08/21 00:58:53;;;;;;;;;;;;;;;;;;1025231;28;1638;-51
2022/08/21 00:59:24;;;;;;;;;;;;;;;;;;1024796;28;3916;-51
2022/08/21 00:59:58;;;;;;;;;;;;;;;;;;1025638;28;1580;-51
2022/08/21 01:00:30;;;;;;;;;;;;;;;;;;1022395;28;3819;-52
2022/08/21 01:01:02;;;;;;;;;;;;;;;;;;1021678;28;1596;-53
2022/08/21 01:01:32;;;;;;;;;;;;;;;;;;1020647;28;4032;-55
2022/08/21 01:02:04;;;;;;;;;;;;;;;;;;1021812;28;2066;-53
2022/08/21 01:02:34;;;;;;;;;;;;;;;;;;1020959;28;4118;-55
2022/08/21 01:03:06;;;;;;;;;;;;;;;;;;1021614;28;1763;-51
2022/08/21 01:03:37;;;;;;;;;;;;;;;;;;1020148;28;3836;-50
2022/08/21 01:04:07;;;;;;;;;;;;;;;;;;1022142;28;2859;-52
2022/08/21 01:04:38;;;;;;;;;;;;;;;;;;1019901;28;4230;-53
2022/08/21 01:05:08;;;;;;;;;;;;;;;;;;1022214;28;1473;-51
2022/08/21 01:05:39;;;;;;;;;;;;;;;;;;1021104;28;4064;-49
2022/08/21 01:06:17;;;;;;;;;;;;;;;;;;1021293;28;3127;-50
2022/08/21 01:06:47;;;;;;;;;;;;;;;;;;1020698;28;3779;-55
2022/08/21 01:07:17;;;;;;;;;;;;;;;;;;1022189;28;1731;-50
2022/08/21 01:07:48;;;;;;;;;;;;;;;;;;1020156;28;3901;-48
2022/08/21 01:08:19;;;;;;;;;;;;;;;;;;1022507;28;1660;-51
2022/08/21 01:08:50;;;;;;;;;;;;;;;;;;1021147;28;3804;-54
2022/08/21 01:09:20;;;;;;;;;;;;;;;;;;1021402;28;3878;-53
2022/08/21 01:09:51;;;;;;;;;;;;;;;;;;1021399;28;2383;-51
2022/08/21 01:10:22;;;;;;;;;;;;;;;;;;1020900;28;4060;-53
2022/08/21 01:10:53;;;;;;;;;;;;;;;;;;1020984;28;2137;-53
2022/08/21 01:11:24;;;;;;;;;;;;;;;;;;1020687;28;3824;-52
2022/08/21 01:11:54;;;;;;;;;;;;;;;;;;1021017;28;1628;-49
2022/08/21 01:12:25;;;;;;;;;;;;;;;;;;1021316;28;4044;-48
2022/08/21 01:12:55;;;;;;;;;;;;;;;;;;1020653;28;2706;-51
2022/08/21 01:13:27;;;;;;;;;;;;;;;;;;1021869;28;4161;-53
2022/08/21 01:13:58;;;;;;;;;;;;;;;;;;1020507;28;2799;-49
2022/08/21 01:14:30;;;;;;;;;;;;;;;;;;1021015;28;4074;-52
2022/08/21 01:15:02;;;;;;;;;;;;;;;;;;1021811;28;1955;-50
2022/08/21 01:15:34;;;;;;;;;;;;;;;;;;1020821;28;4082;-51
2022/08/21 01:16:08;;;;;;;;;;;;;;;;;;1021674;28;1589;-55
2022/08/21 01:16:40;;;;;;;;;;;;;;;;;;1020154;28;3909;-49
2022/08/21 01:17:25;;;;;;;;;;;;;;;;;;1019747;28;2974;-49
2022/08/21 01:18:07;;;;;;;;;;;;;;;;;;1016291;29;3682;-50
2022/08/21 01:18:37;;;;;;;;;;;;;;;;;;1017710;28;3882;-52
2022/08/21 01:19:08;;;;;;;;;;;;;;;;;;1017274;29;2105;-52
2022/08/21 01:19:39;;;;;;;;;;;;;;;;;;1016760;28;4396;-51
2022/08/21 01:20:16;;;;;;;;;;;;;;;;;;1017916;29;1856;-55
2022/08/21 01:21:01;;;;;;;;;;;;;;;;;;1017844;29;3996;-47
2022/08/21 01:21:31;;;;;;;;;;;;;;;;;;1016544;29;4125;-53
2022/08/21 01:22:01;;;;;;;;;;;;;;;;;;1018219;29;1413;-49
2022/08/21 01:22:32;;;;;;;;;;;;;;;;;;1017042;28;4103;-51
2022/08/21 01:23:03;;;;;;;;;;;;;;;;;;1018118;29;1994;-50
2022/08/21 01:23:35;;;;;;;;;;;;;;;;;;1016933;28;4210;-54
2022/08/21 01:24:06;;;;;;;;;;;;;;;;;;1019084;29;1584;-50
2022/08/21 01:24:36;;;;;;;;;;;;;;;;;;1018578;28;3898;-52
2022/08/21 01:25:08;;;;;;;;;;;;;;;;;;1018431;29;1624;-53
2022/08/21 01:25:38;;;;;;;;;;;;;;;;;;1018284;28;4247;-52
2022/08/21 01:26:09;;;;;;;;;;;;;;;;;;1018437;29;1911;-51
2022/08/21 01:26:41;;;;;;;;;;;;;;;;;;1017105;28;4944;-51
2022/08/21 01:27:11;;;;;;;;;;;;;;;;;;1018938;29;1999;-49
2022/08/21 01:27:42;;;;;;;;;;;;;;;;;;1018238;28;4494;-54
2022/08/21 01:28:13;;;;;;;;;;;;;;;;;;1016634;29;2670;-53
2022/08/21 01:28:49;;;;;;;;;;;;;;;;;;1017406;28;4088;-55
2022/08/21 01:29:38;;;;;;;;;;;;;;;;;;1018422;28;3897;-47
2022/08/21 01:30:11;;;;;;;;;;;;;;;;;;1018446;29;1910;-53
2022/08/21 01:30:42;;;;;;;;;;;;;;;;;;1018533;28;3962;-48
2022/08/21 01:31:13;;;;;;;;;;;;;;;;;;1016730;29;3473;-50
2022/08/21 01:31:43;;;;;;;;;;;;;;;;;;1017595;29;3936;-56
2022/08/21 01:32:15;;;;;;;;;;;;;;;;;;1017426;29;3122;-51
2022/08/21 01:32:45;;;;;;;;;;;;;;;;;;1017430;29;3830;-54
2022/08/21 01:33:17;;;;;;;;;;;;;;;;;;1018707;29;1387;-52
2022/08/21 01:33:47;;;;;;;;;;;;;;;;;;1018131;28;4008;-48
2022/08/21 01:34:18;;;;;;;;;;;;;;;;;;1018489;29;1730;-53
2022/08/21 01:34:49;;;;;;;;;;;;;;;;;;1018739;28;4012;-48
2022/08/21 01:35:20;;;;;;;;;;;;;;;;;;1018501;29;4107;-55
2022/08/21 01:35:50;;;;;;;;;;;;;;;;;;1021211;29;3266;-54
2022/08/21 01:36:21;;;;;;;;;;;;;;;;;;1020980;28;4062;-49
2022/08/21 01:36:52;;;;;;;;;;;;;;;;;;1020510;29;1719;-52
2022/08/21 01:37:22;;;;;;;;;;;;;;;;;;1017114;28;3944;-50
2022/08/21 01:37:52;;;;;;;;;;;;;;;;;;1017121;29;2995;-52
2022/08/21 01:38:22;;;;;;;;;;;;;;;;;;1018477;28;3964;-52
2022/08/21 01:38:53;;;;;;;;;;;;;;;;;;1018740;29;1425;-50
2022/08/21 01:39:23;;;;;;;;;;;;;;;;;;1018422;28;3904;-54
2022/08/21 01:39:53;;;;;;;;;;;;;;;;;;1018755;29;1904;-52
2022/08/21 01:40:24;;;;;;;;;;;;;;;;;;1016919;28;4426;-49
2022/08/21 01:40:54;;;;;;;;;;;;;;;;;;1018500;29;1570;-50
2022/08/21 01:41:25;;;;;;;;;;;;;;;;;;1018191;28;4407;-52
2022/08/21 01:41:55;;;;;;;;;;;;;;;;;;1018399;29;1684;-54
2022/08/21 01:42:25;;;;;;;;;;;;;;;;;;1017969;28;3913;-50
2022/08/21 01:42:56;;;;;;;;;;;;;;;;;;1018171;29;1903;-51
2022/08/21 01:43:26;;;;;;;;;;;;;;;;;;1017996;28;3992;-51
2022/08/21 01:43:56;;;;;;;;;;;;;;;;;;1018734;29;1581;-54
2022/08/21 01:44:27;;;;;;;;;;;;;;;;;;1017659;28;3941;-49
2022/08/21 01:44:57;;;;;;;;;;;;;;;;;;1018486;28;1713;-50
2022/08/21 01:45:27;;;;;;;;;;;;;;;;;;1017887;28;3924;-53
2022/08/21 01:45:58;;;;;;;;;;;;;;;;;;1018384;29;1975;-50
2022/08/21 01:46:28;;;;;;;;;;;;;;;;;;1017923;28;4113;-52
2022/08/21 01:47:00;;;;;;;;;;;;;;;;;;1018537;28;2010;-50
2022/08/21 01:47:30;;;;;;;;;;;;;;;;;;1017956;28;3895;-52
2022/08/21 01:48:02;;;;;;;;;;;;;;;;;;1017266;29;2882;-53
2022/08/21 01:48:32;;;;;;;;;;;;;;;;;;1018117;28;4044;-51
2022/08/21 01:49:03;;;;;;;;;;;;;;;;;;1018286;29;1521;-53
2022/08/21 01:49:34;;;;;;;;;;;;;;;;;;1018168;28;3905;-52
2022/08/21 01:50:07;;;;;;;;;;;;;;;;;;1018414;29;1847;-50
2022/08/21 01:50:37;;;;;;;;;;;;;;;;;;1016779;28;4402;-49
2022/08/21 01:51:08;;;;;;;;;;;;;;;;;;1018296;29;2434;-48
2022/08/21 01:51:38;;;;;;;;;;;;;;;;;;1017734;28;3906;-50
2022/08/21 01:52:09;;;;;;;;;;;;;;;;;;1018713;29;1590;-52
2022/08/21 01:52:40;;;;;;;;;;;;;;;;;;1017689;28;3812;-52
2022/08/21 01:53:10;;;;;;;;;;;;;;;;;;1021773;28;1827;-50
2022/08/21 01:53:40;;;;;;;;;;;;;;;;;;1021838;28;3981;-53
2022/08/21 01:54:11;;;;;;;;;;;;;;;;;;1022244;28;1350;-48
2022/08/21 01:54:41;;;;;;;;;;;;;;;;;;1021488;28;3806;-49
2022/08/21 01:55:13;;;;;;;;;;;;;;;;;;1018715;29;1573;-53
2022/08/21 01:55:43;;;;;;;;;;;;;;;;;;1018024;28;3775;-49
2022/08/21 01:56:14;;;;;;;;;;;;;;;;;;1018854;29;1578;-51
2022/08/21 01:56:46;;;;;;;;;;;;;;;;;;1018082;29;3950;-55
2022/08/21 01:57:16;;;;;;;;;;;;;;;;;;1017583;29;3031;-49
2022/08/21 01:57:47;;;;;;;;;;;;;;;;;;1014493;29;3837;-52
2022/08/21 01:58:17;;;;;;;;;;;;;;;;;;1017004;29;3490;-48
2022/08/21 01:58:48;;;;;;;;;;;;;;;;;;1017459;29;4425;-49
2022/08/21 01:59:18;;;;;;;;;;;;;;;;;;1017042;29;1410;-48
2022/08/21 01:59:48;;;;;;;;;;;;;;;;;;1020872;28;3865;-52
2022/08/21 02:00:22;;;;;;;;;;;;;;;;;;1021037;28;3998;-49
2022/08/21 02:00:52;;;;;;;;;;;;;;;;;;1017474;29;3153;-52
2022/08/21 02:01:22;;;;;;;;;;;;;;;;;;1017697;28;4064;-49
2022/08/21 02:01:54;;;;;;;;;;;;;;;;;;1018416;29;1490;-50
2022/08/21 02:02:24;;;;;;;;;;;;;;;;;;1018692;28;3903;-50
2022/08/21 02:02:55;;;;;;;;;;;;;;;;;;1017432;29;2046;-51
2022/08/21 02:03:25;;;;;;;;;;;;;;;;;;1016836;28;6113;-51
2022/08/21 02:03:56;;;;;;;;;;;;;;;;;;1017792;29;2168;-49
2022/08/21 02:04:26;;;;;;;;;;;;;;;;;;1017181;29;3905;-52
2022/08/21 02:04:57;;;;;;;;;;;;;;;;;;1018332;29;1591;-49
2022/08/21 02:05:27;;;;;;;;;;;;;;;;;;1016992;29;4285;-51
2022/08/21 02:05:57;;;;;;;;;;;;;;;;;;1018009;29;3114;-47
2022/08/21 02:06:34;;;;;;;;;;;;;;;;;;1018260;28;3899;-50
2022/08/21 02:07:05;;;;;;;;;;;;;;;;;;1017767;29;1780;-49
2022/08/21 02:07:39;;;;;;;;;;;;;;;;;;1017808;28;4095;-51
2022/08/21 02:08:09;;;;;;;;;;;;;;;;;;1017628;29;3608;-53
2022/08/21 02:08:40;;;;;;;;;;;;;;;;;;1018048;28;3776;-53
2022/08/21 02:09:11;;;;;;;;;;;;;;;;;;1017691;29;1724;-51
2022/08/21 02:09:44;;;;;;;;;;;;;;;;;;1018020;28;3878;-49
2022/08/21 02:10:16;;;;;;;;;;;;;;;;;;1018108;29;1602;-50
2022/08/21 02:10:47;;;;;;;;;;;;;;;;;;1017319;28;3736;-52
2022/08/21 02:11:17;;;;;;;;;;;;;;;;;;1017660;29;3003;-52
2022/08/21 02:11:47;;;;;;;;;;;;;;;;;;1018153;28;3994;-49
2022/08/21 02:12:18;;;;;;;;;;;;;;;;;;1017329;29;2938;-52
2022/08/21 02:12:49;;;;;;;;;;;;;;;;;;1017164;29;3818;-50
2022/08/21 02:13:20;;;;;;;;;;;;;;;;;;1016969;29;4087;-53
2022/08/21 02:13:50;;;;;;;;;;;;;;;;;;1018178;29;1712;-54
2022/08/21 02:14:20;;;;;;;;;;;;;;;;;;1018282;28;4067;-51
2022/08/21 02:14:50;;;;;;;;;;;;;;;;;;1018357;29;1580;-54
2022/08/21 02:15:21;;;;;;;;;;;;;;;;;;1017630;28;3830;-49
2022/08/21 02:15:51;;;;;;;;;;;;;;;;;;1017624;29;2472;-48
2022/08/21 02:16:22;;;;;;;;;;;;;;;;;;1016139;29;4151;-50
2022/08/21 02:16:52;;;;;;;;;;;;;;;;;;1016930;29;1796;-52
2022/08/21 02:17:43;;;;;;;;;;;;;;;;;;1016431;28;4089;-52
2022/08/21 02:18:22;;;;;;;;;;;;;;;;;;1022173;28;3917;-55
2022/08/21 02:18:52;;;;;;;;;;;;;;;;;;1021772;28;1574;-53
2022/08/21 02:19:22;;;;;;;;;;;;;;;;;;1021923;28;3772;-52
2022/08/21 02:19:53;;;;;;;;;;;;;;;;;;1024835;28;2420;-53
2022/08/21 02:20:24;;;;;;;;;;;;;;;;;;1025807;28;4067;-56
2022/08/21 02:20:55;;;;;;;;;;;;;;;;;;1025484;28;2639;-53
2022/08/21 02:21:26;;;;;;;;;;;;;;;;;;1025255;28;4053;-53
2022/08/21 02:21:56;;;;;;;;;;;;;;;;;;1022430;28;1613;-52
2022/08/21 02:22:26;;;;;;;;;;;;;;;;;;1021674;28;4208;-54
2022/08/21 02:22:57;;;;;;;;;;;;;;;;;;1021891;28;1946;-50
2022/08/21 02:23:27;;;;;;;;;;;;;;;;;;1021126;28;3813;-54
2022/08/21 02:23:57;;;;;;;;;;;;;;;;;;1022325;28;2154;-52
2022/08/21 02:24:28;;;;;;;;;;;;;;;;;;1021631;28;3802;-51
2022/08/21 02:24:58;;;;;;;;;;;;;;;;;;1021925;28;1750;-52
2022/08/21 02:25:28;;;;;;;;;;;;;;;;;;1021758;28;4004;-52
2022/08/21 02:25:59;;;;;;;;;;;;;;;;;;1022197;28;1947;-48
2022/08/21 02:26:30;;;;;;;;;;;;;;;;;;1021706;28;4080;-49
2022/08/21 02:27:00;;;;;;;;;;;;;;;;;;1021821;28;2056;-54
2022/08/21 02:27:37;;;;;;;;;;;;;;;;;;1021040;28;3905;-50
2022/08/21 02:28:12;;;;;;;;;;;;;;;;;;1021231;28;3700;-51
2022/08/21 02:28:43;;;;;;;;;;;;;;;;;;1021379;28;3950;-50
2022/08/21 02:29:13;;;;;;;;;;;;;;;;;;1023215;28;1689;-49
2022/08/21 02:29:44;;;;;;;;;;;;;;;;;;1021984;28;3877;-50
2022/08/21 02:30:15;;;;;;;;;;;;;;;;;;1022332;28;1948;-52
2022/08/21 02:30:47;;;;;;;;;;;;;;;;;;1020947;28;3970;-52
2022/08/21 02:31:17;;;;;;;;;;;;;;;;;;1022118;28;3287;-54
2022/08/21 02:31:48;;;;;;;;;;;;;;;;;;1020741;28;4055;-54
2022/08/21 02:32:18;;;;;;;;;;;;;;;;;;1021622;28;1822;-51
2022/08/21 02:32:48;;;;;;;;;;;;;;;;;;1020768;28;3841;-50
2022/08/21 02:33:18;;;;;;;;;;;;;;;;;;1022128;28;1140;-50
2022/08/21 02:33:49;;;;;;;;;;;;;;;;;;1021149;28;3611;-50
2022/08/21 02:34:19;;;;;;;;;;;;;;;;;;1021405;28;4090;-52
2022/08/21 02:34:49;;;;;;;;;;;;;;;;;;1021896;28;1939;-52
2022/08/21 02:35:20;;;;;;;;;;;;;;;;;;1021845;28;4108;-53
2022/08/21 02:35:51;;;;;;;;;;;;;;;;;;1021384;28;3060;-50
2022/08/21 02:36:22;;;;;;;;;;;;;;;;;;1020954;28;3816;-55
2022/08/21 02:36:52;;;;;;;;;;;;;;;;;;1021878;28;1431;-54
2022/08/21 02:37:23;;;;;;;;;;;;;;;;;;1021798;28;4061;-49
2022/08/21 02:37:54;;;;;;;;;;;;;;;;;;1020581;28;3767;-51
2022/08/21 02:38:27;;;;;;;;;;;;;;;;;;1021559;28;3906;-52
2022/08/21 02:38:57;;;;;;;;;;;;;;;;;;1022483;28;1490;-56
2022/08/21 02:39:27;;;;;;;;;;;;;;;;;;1021479;28;3883;-52
2022/08/21 02:39:59;;;;;;;;;;;;;;;;;;1022841;28;1589;-54
2022/08/21 02:40:31;;;;;;;;;;;;;;;;;;1021747;28;4187;-49
2022/08/21 02:41:01;;;;;;;;;;;;;;;;;;1021428;28;2849;-50
2022/08/21 02:41:32;;;;;;;;;;;;;;;;;;1020266;28;4292;-53
2022/08/21 02:42:02;;;;;;;;;;;;;;;;;;1021385;28;1975;-50
2022/08/21 02:42:32;;;;;;;;;;;;;;;;;;1021342;28;4056;-53
2022/08/21 02:43:04;;;;;;;;;;;;;;;;;;1022850;28;1610;-51
2022/08/21 02:43:35;;;;;;;;;;;;;;;;;;1022468;28;4071;-54
2022/08/21 02:44:05;;;;;;;;;;;;;;;;;;1022399;28;1572;-50
2022/08/21 02:44:36;;;;;;;;;;;;;;;;;;1021217;28;3929;-55
2022/08/21 02:45:07;;;;;;;;;;;;;;;;;;1022252;28;1729;-49
2022/08/21 02:45:38;;;;;;;;;;;;;;;;;;1017626;29;3896;-54
2022/08/21 02:46:09;;;;;;;;;;;;;;;;;;1018082;29;1915;-55
2022/08/21 02:46:39;;;;;;;;;;;;;;;;;;1020067;28;3884;-50
2022/08/21 02:47:09;;;;;;;;;;;;;;;;;;1022284;28;1632;-50
2022/08/21 02:47:40;;;;;;;;;;;;;;;;;;1019896;28;4815;-52
2022/08/21 02:48:12;;;;;;;;;;;;;;;;;;1022556;28;3343;-51
2022/08/21 02:48:43;;;;;;;;;;;;;;;;;;1021712;28;4158;-49
2022/08/21 02:49:13;;;;;;;;;;;;;;;;;;1022681;28;1643;-50
2022/08/21 02:49:43;;;;;;;;;;;;;;;;;;1020179;28;4041;-52
2022/08/21 02:50:16;;;;;;;;;;;;;;;;;;1026778;28;1272;-51
2022/08/21 02:50:48;;;;;;;;;;;;;;;;;;1020645;28;4070;-54
2022/08/21 02:51:19;;;;;;;;;;;;;;;;;;1017802;29;3070;-53
2022/08/21 02:51:49;;;;;;;;;;;;;;;;;;1017418;29;4046;-55
2022/08/21 02:52:21;;;;;;;;;;;;;;;;;;1017727;28;4039;-53
2022/08/21 02:52:52;;;;;;;;;;;;;;;;;;1021287;28;2359;-52
2022/08/21 02:53:22;;;;;;;;;;;;;;;;;;1020749;28;3852;-52
2022/08/21 02:53:53;;;;;;;;;;;;;;;;;;1022001;28;3050;-52
2022/08/21 02:54:23;;;;;;;;;;;;;;;;;;1021786;28;3889;-53
2022/08/21 02:54:53;;;;;;;;;;;;;;;;;;1021857;28;1228;-52
2022/08/21 02:55:26;;;;;;;;;;;;;;;;;;1021955;28;3936;-50
2022/08/21 02:55:57;;;;;;;;;;;;;;;;;;1025205;28;1829;-52
2022/08/21 02:56:27;;;;;;;;;;;;;;;;;;1020861;29;3990;-50
2022/08/21 02:56:57;;;;;;;;;;;;;;;;;;1020004;29;1749;-52
2022/08/21 02:57:28;;;;;;;;;;;;;;;;;;1020707;29;4100;-55
2022/08/21 02:57:58;;;;;;;;;;;;;;;;;;1020768;28;2679;-49
2022/08/21 02:58:31;;;;;;;;;;;;;;;;;;1021942;28;3903;-49
2022/08/21 02:59:01;;;;;;;;;;;;;;;;;;1021791;28;1707;-53
2022/08/21 02:59:32;;;;;;;;;;;;;;;;;;1021650;28;3887;-52
2022/08/21 03:00:04;;;;;;;;;;;;;;;;;;1022550;28;1387;-53
2022/08/21 03:00:36;;;;;;;;;;;;;;;;;;1021570;28;3932;-54
2022/08/21 03:01:13;;;;;;;;;;;;;;;;;;1021815;28;3147;-50
2022/08/21 03:01:43;;;;;;;;;;;;;;;;;;1021392;28;3924;-51
2022/08/21 03:02:14;;;;;;;;;;;;;;;;;;1022166;28;1474;-52
2022/08/21 03:02:46;;;;;;;;;;;;;;;;;;1021019;28;4032;-54
2022/08/21 03:03:16;;;;;;;;;;;;;;;;;;1021966;28;2975;-52
2022/08/21 03:03:49;;;;;;;;;;;;;;;;;;1021551;28;4044;-54
2022/08/21 03:04:19;;;;;;;;;;;;;;;;;;1021683;28;4081;-53
2022/08/21 03:04:50;;;;;;;;;;;;;;;;;;1022607;28;1281;-54
2022/08/21 03:05:20;;;;;;;;;;;;;;;;;;1020982;28;3932;-52
2022/08/21 03:05:51;;;;;;;;;;;;;;;;;;1021903;28;1822;-52
2022/08/21 03:06:22;;;;;;;;;;;;;;;;;;1022047;28;4487;-51
2022/08/21 03:06:52;;;;;;;;;;;;;;;;;;1021729;28;1724;-51
2022/08/21 03:07:22;;;;;;;;;;;;;;;;;;1022000;28;3917;-50
2022/08/21 03:07:52;;;;;;;;;;;;;;;;;;1020206;28;3081;-53
2022/08/21 03:08:23;;;;;;;;;;;;;;;;;;1022089;28;3812;-54
2022/08/21 03:08:54;;;;;;;;;;;;;;;;;;1021467;28;2036;-52
2022/08/21 03:09:24;;;;;;;;;;;;;;;;;;1021506;28;3989;-55
2022/08/21 03:09:54;;;;;;;;;;;;;;;;;;1021334;28;3197;-53
2022/08/21 03:10:25;;;;;;;;;;;;;;;;;;1021185;28;3944;-52
2022/08/21 03:10:55;;;;;;;;;;;;;;;;;;1020815;28;2642;-52
2022/08/21 03:11:26;;;;;;;;;;;;;;;;;;1021269;28;3897;-49
2022/08/21 03:11:57;;;;;;;;;;;;;;;;;;1021681;28;3412;-54
2022/08/21 03:12:27;;;;;;;;;;;;;;;;;;1021893;28;3912;-55
2022/08/21 03:12:58;;;;;;;;;;;;;;;;;;1021650;28;1498;-52
2022/08/21 03:13:28;;;;;;;;;;;;;;;;;;1021186;28;3812;-51
2022/08/21 03:13:59;;;;;;;;;;;;;;;;;;1021787;28;1979;-53
2022/08/21 03:14:29;;;;;;;;;;;;;;;;;;1021700;28;4100;-52
2022/08/21 03:14:59;;;;;;;;;;;;;;;;;;1021362;28;2986;-54
2022/08/21 03:15:30;;;;;;;;;;;;;;;;;;1021354;28;4198;-53
2022/08/21 03:16:00;;;;;;;;;;;;;;;;;;1022132;28;1663;-51
2022/08/21 03:16:31;;;;;;;;;;;;;;;;;;1021544;28;4096;-52
2022/08/21 03:17:01;;;;;;;;;;;;;;;;;;1022401;28;1814;-49
2022/08/21 03:17:44;;;;;;;;;;;;;;;;;;1019965;28;3869;-53
2022/08/21 03:18:15;;;;;;;;;;;;;;;;;;1021701;28;3165;-50
2022/08/21 03:18:45;;;;;;;;;;;;;;;;;;1020650;28;3882;-52
2022/08/21 03:19:15;;;;;;;;;;;;;;;;;;1022372;28;3471;-50
2022/08/21 03:19:45;;;;;;;;;;;;;;;;;;1021594;28;4193;-54
2022/08/21 03:20:18;;;;;;;;;;;;;;;;;;1021859;28;1661;-56
2022/08/21 03:20:48;;;;;;;;;;;;;;;;;;1020786;28;4118;-56
2022/08/21 03:21:19;;;;;;;;;;;;;;;;;;1021683;28;4072;-48
2022/08/21 03:21:49;;;;;;;;;;;;;;;;;;1022088;28;1560;-53
2022/08/21 03:22:19;;;;;;;;;;;;;;;;;;1021640;28;3824;-53
2022/08/21 03:22:51;;;;;;;;;;;;;;;;;;1021997;28;1510;-50
2022/08/21 03:23:27;;;;;;;;;;;;;;;;;;1020894;28;4398;-53
2022/08/21 03:23:58;;;;;;;;;;;;;;;;;;1022087;28;2080;-48
2022/08/21 03:24:28;;;;;;;;;;;;;;;;;;1021635;28;3895;-51
2022/08/21 03:24:59;;;;;;;;;;;;;;;;;;1021709;28;1531;-52
2022/08/21 03:25:36;;;;;;;;;;;;;;;;;;1021897;28;4747;-54
2022/08/21 03:26:07;;;;;;;;;;;;;;;;;;1021637;28;1914;-50
2022/08/21 03:26:37;;;;;;;;;;;;;;;;;;1022089;28;3900;-50
2022/08/21 03:27:07;;;;;;;;;;;;;;;;;;1021301;28;1716;-50
2022/08/21 03:27:37;;;;;;;;;;;;;;;;;;1021939;28;3970;-51
2022/08/21 03:28:09;;;;;;;;;;;;;;;;;;1020269;28;3276;-57
2022/08/21 03:28:40;;;;;;;;;;;;;;;;;;1021860;28;3867;-56
2022/08/21 03:29:10;;;;;;;;;;;;;;;;;;1020983;28;2355;-50
2022/08/21 03:29:40;;;;;;;;;;;;;;;;;;1021836;28;3967;-52
2022/08/21 03:30:11;;;;;;;;;;;;;;;;;;1022190;28;1941;-48
2022/08/21 03:30:42;;;;;;;;;;;;;;;;;;1021747;28;3888;-54
2022/08/21 03:31:12;;;;;;;;;;;;;;;;;;1020836;28;2838;-52
2022/08/21 03:31:43;;;;;;;;;;;;;;;;;;1022065;28;4025;-50
2022/08/21 03:32:13;;;;;;;;;;;;;;;;;;1021798;28;1862;-52
2022/08/21 03:32:43;;;;;;;;;;;;;;;;;;1022446;28;3780;-54
2022/08/21 03:33:14;;;;;;;;;;;;;;;;;;1020756;28;2002;-55
2022/08/21 03:33:44;;;;;;;;;;;;;;;;;;1021521;28;4124;-51
2022/08/21 03:34:14;;;;;;;;;;;;;;;;;;1020556;28;2980;-52
2022/08/21 03:34:45;;;;;;;;;;;;;;;;;;1021522;28;3842;-51
2022/08/21 03:35:15;;;;;;;;;;;;;;;;;;1020872;28;3055;-48
2022/08/21 03:35:48;;;;;;;;;;;;;;;;;;1021724;28;3839;-53
2022/08/21 03:36:18;;;;;;;;;;;;;;;;;;1022080;28;1656;-55
2022/08/21 03:36:49;;;;;;;;;;;;;;;;;;1020129;28;3824;-54
2022/08/21 03:37:19;;;;;;;;;;;;;;;;;;1021784;28;4066;-48
2022/08/21 03:37:49;;;;;;;;;;;;;;;;;;1021148;28;3730;-53
2022/08/21 03:38:20;;;;;;;;;;;;;;;;;;1021285;28;3840;-50